Time;durP1;ratioP1;P1;durP2;ratioP2;P2;SDS_P1;SDS_P2;PMS_P1;PMS_P2;Temp;Humidity;BMP_temperature;BMP_pressure;BME280_temperature;BME280_humidity;BME280_pressure;Samples;Min_cycle;Max_cycle;Signal;HPM_P1;HPM_P2
2021/04/10 00:02:07;;;;;;;3.92;0.70;;;15.30;55.60;;;;;;5094482;28;20039;-73
2021/04/10 00:04:32;;;;;;;3.45;0.88;;;15.30;55.60;;;;;;5094251;28;20036;-72
2021/04/10 00:06:58;;;;;;;1.88;0.68;;;15.30;55.60;;;;;;5093941;28;20063;-72
2021/04/10 00:09:24;;;;;;;5.57;1.08;;;15.30;55.50;;;;;;5094657;28;20050;-73
2021/04/10 00:11:50;;;;;;;3.53;0.90;;;15.30;55.50;;;;;;5094231;28;20047;-73
2021/04/10 00:14:16;;;;;;;4.15;0.90;;;15.30;55.50;;;;;;5094424;28;20522;-72
2021/04/10 00:16:42;;;;;;;2.70;0.68;;;15.30;55.50;;;;;;5094150;28;20115;-72
2021/04/10 00:19:08;;;;;;;2.22;0.70;;;15.30;55.50;;;;;;5094367;28;20443;-72
2021/04/10 00:21:34;;;;;;;3.20;0.70;;;15.30;55.50;;;;;;5094299;28;20086;-72
2021/04/10 00:24:00;;;;;;;1.55;0.68;;;15.30;55.50;;;;;;5093822;28;20739;-72
2021/04/10 00:26:26;;;;;;;3.75;0.90;;;15.30;55.60;;;;;;5093969;28;20126;-73
2021/04/10 00:28:52;;;;;;;1.85;0.65;;;15.30;55.60;;;;;;5094145;28;20074;-73
2021/04/10 00:31:18;;;;;;;3.75;0.70;;;15.30;56.20;;;;;;5093616;28;20362;-72
2021/04/10 00:33:44;;;;;;;3.28;1.10;;;15.30;55.60;;;;;;5094218;28;20040;-72
2021/04/10 00:36:10;;;;;;;4.88;0.88;;;15.30;55.60;;;;;;5085908;28;20040;-73
2021/04/10 00:38:37;;;;;;;2.78;1.00;;;15.20;55.60;;;;;;5094321;28;20149;-72
2021/04/10 00:41:04;;;;;;;5.07;0.90;;;15.20;55.60;;;;;;5093666;28;20048;-72
2021/04/10 00:43:31;;;;;;;2.85;0.57;;;15.30;55.60;;;;;;5094356;28;20517;-73
2021/04/10 00:45:56;;;;;;;3.95;0.88;;;15.30;55.70;;;;;;5094025;28;20082;-73
2021/04/10 00:48:22;;;;;;;2.88;0.73;;;15.30;55.70;;;;;;5093912;28;20334;-72
2021/04/10 00:50:51;;;;;;;6.68;1.30;;;15.30;55.70;;;;;;5093390;28;20044;-74
2021/04/10 00:53:19;;;;;;;2.28;0.57;;;15.20;55.60;;;;;;5085247;28;20048;-72
2021/04/10 00:55:47;;;;;;;4.47;0.95;;;15.20;55.60;;;;;;5092308;28;20036;-73
2021/04/10 00:58:13;;;;;;;5.05;0.88;;;15.20;55.60;;;;;;5098559;28;20075;-72
2021/04/10 01:00:42;;;;;;;5.55;1.13;;;15.20;55.60;;;;;;5096183;28;20501;-72
2021/04/10 01:03:08;;;;;;;3.25;0.75;;;15.20;55.60;;;;;;5096796;28;20039;-73
2021/04/10 01:05:35;;;;;;;2.58;0.60;;;15.20;55.60;;;;;;5097583;28;20457;-72
2021/04/10 01:08:01;;;;;;;2.85;0.82;;;15.20;55.60;;;;;;5097347;28;20081;-72
2021/04/10 01:10:29;;;;;;;4.18;0.90;;;15.20;55.60;;;;;;5097491;28;20044;-73
2021/04/10 01:13:11;;;;;;;4.10;0.60;;;15.20;55.60;;;;;;5097113;28;20040;-73
2021/04/10 01:15:43;;;;;;;4.15;1.05;;;15.20;55.60;;;;;;5091068;28;20115;-73
2021/04/10 01:18:16;;;;;;;1.58;0.52;;;15.20;55.60;;;;;;5094113;28;20402;-73
2021/04/10 01:21:04;;;;;;;3.30;1.10;;;15.20;55.60;;;;;;5091902;28;20548;-72
2021/04/10 01:24:07;;;;;;;3.30;0.73;;;15.20;55.60;;;;;;5096457;28;20074;-72
2021/04/10 01:27:12;;;;;;;4.35;0.95;;;15.10;55.60;;;;;;5089356;28;20046;-73
2021/04/10 01:29:49;;;;;;;3.53;0.65;;;15.10;55.60;;;;;;5097393;28;20032;-72
2021/04/10 01:32:16;;;;;;;4.35;1.02;;;15.10;55.60;;;;;;5096185;28;20036;-72
2021/04/10 01:34:53;;;;;;;5.43;1.10;;;15.10;55.60;;;;;;5097059;28;20092;-72
2021/04/10 01:37:31;;;;;;;3.85;0.90;;;15.10;55.70;;;;;;5096438;28;20032;-72
2021/04/10 01:40:01;;;;;;;5.05;0.98;;;15.10;55.60;;;;;;5096985;28;20107;-72
2021/04/10 01:42:29;;;;;;;3.75;0.60;;;15.10;55.70;;;;;;5096236;28;20039;-72
2021/04/10 01:44:58;;;;;;;4.90;0.70;;;15.00;55.60;;;;;;5096800;28;20043;-73
2021/04/10 01:47:24;;;;;;;3.67;0.90;;;15.10;55.80;;;;;;5096489;28;20485;-72
2021/04/10 01:49:51;;;;;;;4.38;0.75;;;15.10;55.70;;;;;;5097013;28;20032;-73
2021/04/10 01:52:19;;;;;;;4.07;0.73;;;15.10;55.70;;;;;;5094936;28;20595;-73
2021/04/10 01:54:45;;;;;;;3.60;0.88;;;15.10;55.70;;;;;;5097102;28;20050;-72
2021/04/10 01:57:12;;;;;;;4.38;1.52;;;15.10;55.70;;;;;;5097291;28;20047;-72
2021/04/10 01:59:44;;;;;;;3.55;0.70;;;15.10;55.70;;;;;;5079276;28;20055;-73
2021/04/10 02:02:13;;;;;;;3.17;1.00;;;15.10;55.70;;;;;;5096685;28;20054;-72
2021/04/10 02:04:43;;;;;;;4.55;0.98;;;15.00;55.70;;;;;;5093359;28;20059;-73
2021/04/10 02:07:11;;;;;;;5.97;1.33;;;15.00;55.70;;;;;;5095581;28;20106;-72
2021/04/10 02:09:40;;;;;;;3.42;0.77;;;15.00;55.70;;;;;;5097002;28;20044;-72
2021/04/10 02:12:07;;;;;;;3.92;1.30;;;15.00;55.70;;;;;;5096378;28;20366;-72
2021/04/10 02:14:33;;;;;;;3.58;0.93;;;15.00;55.70;;;;;;5095230;28;20032;-72
2021/04/10 02:17:00;;;;;;;3.55;0.90;;;15.00;55.70;;;;;;5096338;28;20113;-73
2021/04/10 02:19:26;;;;;;;3.90;0.75;;;15.00;56.30;;;;;;5096087;28;20044;-72
2021/04/10 02:21:52;;;;;;;4.50;1.10;;;15.00;55.70;;;;;;5087568;28;20464;-73
2021/04/10 02:24:18;;;;;;;3.65;0.70;;;15.00;55.70;;;;;;5095684;28;20390;-72
2021/04/10 02:26:44;;;;;;;5.00;1.13;;;15.00;55.70;;;;;;5095646;28;20048;-72
2021/04/10 02:29:11;;;;;;;4.10;0.98;;;14.90;55.70;;;;;;5095912;28;20047;-73
2021/04/10 02:31:44;;;;;;;2.75;0.77;;;15.00;55.70;;;;;;5095677;28;20065;-72
2021/04/10 02:34:22;;;;;;;4.80;0.98;;;14.90;55.60;;;;;;5095520;28;20430;-73
2021/04/10 02:36:52;;;;;;;6.97;1.10;;;15.00;55.60;;;;;;5095322;28;20040;-72
2021/04/10 02:39:19;;;;;;;4.57;0.80;;;14.90;56.20;;;;;;5095988;28;20051;-72
2021/04/10 02:41:51;;;;;;;2.67;0.52;;;14.90;55.60;;;;;;5095363;28;20044;-72
2021/04/10 02:44:23;;;;;;;3.80;1.20;;;14.90;55.60;;;;;;5095781;28;20040;-72
2021/04/10 02:46:52;;;;;;;4.32;0.90;;;14.90;55.60;;;;;;5095362;28;20051;-73
2021/04/10 02:49:25;;;;;;;3.63;0.88;;;14.90;55.60;;;;;;5095018;28;20040;-72
2021/04/10 02:51:54;;;;;;;3.78;0.98;;;14.90;55.60;;;;;;5095215;28;20047;-72
2021/04/10 02:54:24;;;;;;;4.75;0.90;;;14.90;55.60;;;;;;5095469;28;20443;-72
2021/04/10 02:56:54;;;;;;;4.40;1.02;;;14.90;55.60;;;;;;5095173;28;20059;-72
2021/04/10 02:59:22;;;;;;;3.35;0.70;;;14.90;55.70;;;;;;5094746;28;20054;-72
2021/04/10 03:01:50;;;;;;;2.92;0.80;;;14.90;55.70;;;;;;5094938;28;20044;-73
2021/04/10 03:04:17;;;;;;;4.13;0.65;;;14.90;55.70;;;;;;5095551;28;20044;-72
2021/04/10 03:06:43;;;;;;;4.05;0.60;;;14.90;55.80;;;;;;5094822;28;20036;-72
2021/04/10 03:09:10;;;;;;;3.85;0.90;;;14.90;55.90;;;;;;5095001;28;20064;-73
2021/04/10 03:11:36;;;;;;;4.00;0.98;;;14.90;55.90;;;;;;5095244;28;20047;-73
2021/04/10 03:14:04;;;;;;;3.65;0.80;;;14.80;55.80;;;;;;5094691;28;20048;-73
2021/04/10 03:16:31;;;;;;;4.68;1.00;;;14.90;55.90;;;;;;5094946;28;20036;-72
2021/04/10 03:18:58;;;;;;;4.80;0.82;;;14.80;55.80;;;;;;5094136;28;20036;-72
2021/04/10 03:21:24;;;;;;;3.40;1.00;;;14.80;55.70;;;;;;5095110;28;20060;-73
2021/04/10 03:23:50;;;;;;;4.47;1.20;;;14.80;55.70;;;;;;5094950;28;20072;-73
2021/04/10 03:26:19;;;;;;;4.03;0.75;;;14.80;55.70;;;;;;5094819;28;20384;-72
2021/04/10 03:28:45;;;;;;;3.63;0.77;;;14.80;55.70;;;;;;5094232;28;20040;-72
2021/04/10 03:31:15;;;;;;;4.07;1.05;;;14.80;55.70;;;;;;5086421;28;20059;-73
2021/04/10 03:33:41;;;;;;;3.35;0.80;;;14.80;55.70;;;;;;5094912;28;20064;-72
2021/04/10 03:36:08;;;;;;;6.18;1.20;;;14.80;55.60;;;;;;5094492;28;20098;-72
2021/04/10 03:38:34;;;;;;;2.75;0.90;;;14.80;55.60;;;;;;5094143;28;20040;-73
2021/04/10 03:41:04;;;;;;;6.40;1.02;;;14.80;55.70;;;;;;5094493;28;20497;-72
2021/04/10 03:43:29;;;;;;;3.40;0.80;;;14.80;55.70;;;;;;5094838;28;20051;-72
2021/04/10 03:45:55;;;;;;;5.45;0.88;;;14.80;55.70;;;;;;5094567;28;20040;-72
2021/04/10 03:48:21;;;;;;;4.28;0.77;;;14.80;55.70;;;;;;5094581;28;20036;-72
2021/04/10 03:50:47;;;;;;;4.38;1.05;;;14.70;55.70;;;;;;5094237;28;20035;-73
2021/04/10 03:53:13;;;;;;;3.30;0.80;;;14.70;55.80;;;;;;5094615;28;20040;-72
2021/04/10 03:55:38;;;;;;;2.72;0.80;;;14.70;55.80;;;;;;5094653;28;20036;-73
2021/04/10 03:58:04;;;;;;;3.25;1.00;;;14.70;55.90;;;;;;5093575;28;20056;-72
2021/04/10 04:00:31;;;;;;;2.53;0.70;;;14.70;55.90;;;;;;5094321;28;20355;-72
2021/04/10 04:02:57;;;;;;;2.75;0.80;;;14.70;55.90;;;;;;5094120;28;20043;-72
2021/04/10 04:05:23;;;;;;;2.55;0.90;;;14.70;55.90;;;;;;5094740;28;20084;-72
2021/04/10 04:07:50;;;;;;;3.20;0.77;;;14.70;55.90;;;;;;5094551;28;20039;-72
2021/04/10 04:10:16;;;;;;;5.45;1.10;;;14.70;56.00;;;;;;5094039;28;20036;-72
2021/04/10 04:12:42;;;;;;;3.92;0.70;;;14.70;56.00;;;;;;5094530;28;20041;-72
2021/04/10 04:15:08;;;;;;;2.70;0.70;;;14.70;56.10;;;;;;5094087;28;20040;-72
2021/04/10 04:17:34;;;;;;;3.63;0.80;;;14.70;56.20;;;;;;5094456;28;20036;-73
2021/04/10 04:20:00;;;;;;;2.33;0.55;;;14.70;56.20;;;;;;5094700;28;20123;-72
2021/04/10 04:22:27;;;;;;;3.15;0.50;;;14.70;56.20;;;;;;5094070;28;20083;-72
2021/04/10 04:24:52;;;;;;;3.85;0.60;;;14.70;56.10;;;;;;5076234;28;20469;-72
2021/04/10 04:27:19;;;;;;;3.63;0.73;;;14.50;54.90;;;;;;5093953;28;20059;-72
2021/04/10 04:29:45;;;;;;;6.80;1.33;;;14.40;55.60;;;;;;5094957;28;20076;-73
2021/04/10 04:32:10;;;;;;;6.68;0.85;;;14.30;56.70;;;;;;5097987;28;20031;-75
2021/04/10 04:34:36;;;;;;;6.10;0.77;;;14.30;57.30;;;;;;5098290;28;20354;-71
2021/04/10 04:37:03;;;;;;;8.15;0.90;;;14.40;57.50;;;;;;5097604;28;20089;-73
2021/04/10 04:39:30;;;;;;;9.15;1.25;;;14.40;57.40;;;;;;5092169;28;20114;-77
2021/04/10 04:41:57;;;;;;;7.10;1.17;;;14.60;57.30;;;;;;5097158;28;20114;-74
2021/04/10 04:44:23;;;;;;;16.38;1.52;;;14.80;57.10;;;;;;5097081;28;20047;-77
2021/04/10 04:46:49;;;;;;;5.53;0.60;;;15.00;56.70;;;;;;5096827;28;20044;-74
2021/04/10 04:49:14;;;;;;;5.97;1.63;;;15.10;56.70;;;;;;5097375;28;20043;-75
2021/04/10 04:51:40;;;;;;;6.07;1.23;;;15.30;56.50;;;;;;5092667;28;20032;-76
2021/04/10 04:54:06;;;;;;;3.72;0.88;;;15.60;56.00;;;;;;5091180;28;20114;-72
2021/04/10 04:56:32;;;;;;;5.95;0.82;;;15.70;55.80;;;;;;5092775;28;20067;-71
2021/04/10 04:58:58;;;;;;;10.98;1.73;;;15.90;55.90;;;;;;5095817;28;20465;-76
2021/04/10 05:01:26;;;;;;;9.40;1.00;;;16.00;56.00;;;;;;5096601;28;20065;-77
2021/04/10 05:03:51;;;;;;;9.68;1.30;;;16.10;55.90;;;;;;5095782;28;20024;-78
2021/04/10 05:06:17;;;;;;;12.45;1.35;;;16.20;56.00;;;;;;5096892;28;20112;-75
2021/04/10 05:08:43;;;;;;;10.90;1.30;;;16.30;56.40;;;;;;5097882;28;20032;-73
2021/04/10 05:11:09;;;;;;;5.30;1.30;;;16.30;56.60;;;;;;5096908;28;20044;-79
2021/04/10 05:13:35;;;;;;;11.55;1.25;;;16.40;56.90;;;;;;5097510;28;20039;-76
2021/04/10 05:16:00;;;;;;;14.63;1.30;;;16.50;56.90;;;;;;5097127;28;20028;-73
2021/04/10 05:18:26;;;;;;;7.97;1.50;;;16.50;56.90;;;;;;5097001;28;20121;-74
2021/04/10 05:20:52;;;;;;;6.53;0.90;;;16.60;57.50;;;;;;5096935;28;20039;-73
2021/04/10 05:23:22;;;;;;;11.07;1.73;;;16.60;57.60;;;;;;5097130;28;20050;-75
2021/04/10 05:25:49;;;;;;;7.97;1.30;;;16.70;57.70;;;;;;5097447;28;20066;-75
2021/04/10 05:28:15;;;;;;;8.18;1.10;;;16.80;57.30;;;;;;5096888;28;20040;-76
2021/04/10 05:30:41;;;;;;;9.07;0.90;;;16.90;57.20;;;;;;5088661;28;20339;-75
2021/04/10 05:33:08;;;;;;;8.70;1.17;;;17.00;57.00;;;;;;5097299;28;20051;-71
2021/04/10 05:35:34;;;;;;;9.38;1.60;;;17.10;56.80;;;;;;5098350;28;20117;-74
2021/04/10 05:38:00;;;;;;;10.40;0.70;;;17.20;56.70;;;;;;5097114;28;20039;-73
2021/04/10 05:40:26;;;;;;;10.77;1.08;;;17.30;56.60;;;;;;5096310;28;20397;-76
2021/04/10 05:42:52;;;;;;;9.95;1.50;;;16.70;54.80;;;;;;5094473;28;20107;-74
2021/04/10 05:45:18;;;;;;;3.53;0.80;;;16.70;55.40;;;;;;5096121;28;20119;-74
2021/04/10 05:47:44;;;;;;;10.52;1.65;;;16.70;52.10;;;;;;5096320;28;20035;-73
2021/04/10 05:50:10;;;;;;;12.55;1.67;;;16.10;51.20;;;;;;5095695;28;20093;-74
2021/04/10 05:52:36;;;;;;;16.15;1.27;;;15.90;56.20;;;;;;5096576;28;20093;-75
2021/04/10 05:55:04;;;;;;;16.85;1.20;;;16.20;57.20;;;;;;5096296;28;20434;-76
2021/04/10 05:57:30;;;;;;;14.55;1.85;;;16.50;57.30;;;;;;5095688;28;20047;-76
2021/04/10 05:59:56;;;;;;;20.90;1.85;;;16.70;56.90;;;;;;5095920;28;20040;-74
2021/04/10 06:02:22;;;;;;;12.77;1.38;;;16.90;56.90;;;;;;5096273;28;20040;-77
2021/04/10 06:04:51;;;;;;;9.27;1.35;;;16.60;52.90;;;;;;5096523;28;20039;-84
2021/04/10 06:07:23;;;;;;;5.68;0.82;;;16.60;51.50;;;;;;5095146;28;20048;-82
2021/04/10 06:09:54;;;;;;;7.47;1.42;;;16.60;49.80;;;;;;5096004;28;20423;-78
2021/04/10 06:12:20;;;;;;;7.90;1.23;;;16.50;48.60;;;;;;5088251;28;20441;-74
2021/04/10 06:14:46;;;;;;;6.43;1.30;;;16.50;48.30;;;;;;5117232;28;20028;-73
2021/04/10 06:17:12;;;;;;;5.25;1.40;;;16.40;47.40;;;;;;5108427;28;20036;-72
2021/04/10 06:19:38;;;;;;;9.60;1.20;;;16.40;47.70;;;;;;5096402;28;20063;-73
2021/04/10 06:22:04;;;;;;;5.20;1.13;;;16.40;48.00;;;;;;5096212;28;20066;-73
2021/04/10 06:24:29;;;;;;;10.40;1.40;;;16.40;47.90;;;;;;5096325;28;20048;-75
2021/04/10 06:26:55;;;;;;;12.93;1.60;;;16.30;48.10;;;;;;5096504;28;20043;-74
2021/04/10 06:29:22;;;;;;;6.20;1.30;;;16.30;48.40;;;;;;5096722;28;20086;-74
2021/04/10 06:31:47;;;;;;;6.72;1.10;;;16.20;48.60;;;;;;5096274;28;20071;-73
2021/04/10 06:34:13;;;;;;;6.35;0.93;;;16.30;49.00;;;;;;5096180;28;20040;-73
2021/04/10 06:36:39;;;;;;;5.13;0.90;;;16.20;49.20;;;;;;5096158;28;20328;-74
2021/04/10 06:39:05;;;;;;;10.20;1.30;;;16.20;49.40;;;;;;5096087;28;20050;-73
2021/04/10 06:41:33;;;;;;;5.10;0.80;;;16.10;49.60;;;;;;5096426;28;20108;-73
2021/04/10 06:43:59;;;;;;;6.07;1.05;;;16.10;49.90;;;;;;5095814;28;20096;-74
2021/04/10 06:46:31;;;;;;;4.10;0.70;;;16.10;50.20;;;;;;5095981;28;20040;-74
2021/04/10 06:48:58;;;;;;;5.18;1.10;;;16.00;50.40;;;;;;5095743;28;20047;-73
2021/04/10 06:51:24;;;;;;;3.50;1.00;;;16.00;51.00;;;;;;5095472;28;20051;-73
2021/04/10 06:53:53;;;;;;;4.28;0.73;;;16.00;51.30;;;;;;5095180;28;20048;-75
2021/04/10 06:56:23;;;;;;;5.28;0.85;;;15.90;51.80;;;;;;5095747;28;20122;-72
2021/04/10 06:58:58;;;;;;;5.90;1.00;;;15.90;52.10;;;;;;5095360;28;20048;-73
2021/04/10 07:01:25;;;;;;;3.53;0.68;;;15.90;52.10;;;;;;5095515;28;20048;-75
2021/04/10 07:03:51;;;;;;;5.55;1.05;;;15.90;52.20;;;;;;5095789;28;20394;-75
2021/04/10 07:06:18;;;;;;;7.13;1.13;;;15.90;52.30;;;;;;5095694;28;20044;-73
2021/04/10 07:08:45;;;;;;;3.67;0.93;;;15.90;52.30;;;;;;5095599;28;20068;-76
2021/04/10 07:11:15;;;;;;;2.65;0.70;;;15.80;52.30;;;;;;5095548;28;20048;-73
2021/04/10 07:13:42;;;;;;;3.97;1.15;;;15.80;52.40;;;;;;5095249;28;20032;-74
2021/04/10 07:16:08;;;;;;;3.05;1.00;;;15.80;52.40;;;;;;5095363;28;20040;-75
2021/04/10 07:18:35;;;;;;;3.28;0.90;;;15.80;52.50;;;;;;5096035;28;20052;-74
2021/04/10 07:21:19;;;;;;;3.85;0.82;;;15.80;52.70;;;;;;5095446;28;20228;-72
2021/04/10 07:23:49;;;;;;;;;;;15.80;52.40;;;;;;5095438;28;20043;-77
2021/04/10 07:26:16;;;;;;;6.38;0.70;;;15.70;53.00;;;;;;5095240;28;19927;-73
2021/04/10 07:28:46;;;;;;;3.88;0.85;;;15.70;52.90;;;;;;5095265;28;20051;-73
2021/04/10 07:31:16;;;;;;;4.38;0.88;;;15.70;52.80;;;;;;5077518;28;20071;-74
2021/04/10 07:33:57;;;;;;;4.25;0.82;;;15.70;52.90;;;;;;5095439;28;20080;-74
2021/04/10 07:36:23;;;;;;;2.83;0.68;;;15.70;53.10;;;;;;5094779;28;20126;-74
2021/04/10 07:38:57;;;;;;;2.20;0.65;;;15.70;53.30;;;;;;5095104;28;20388;-75
2021/04/10 07:41:23;;;;;;;;;;;15.70;53.40;;;;;;5095491;28;20109;-73
2021/04/10 07:43:49;;;;;;;3.03;0.47;;;15.70;53.30;;;;;;5095469;28;19924;-73
2021/04/10 07:46:18;;;;;;;5.13;0.90;;;15.70;53.40;;;;;;5094791;28;20050;-74
2021/04/10 07:49:10;;;;;;;4.18;0.70;;;15.70;53.40;;;;;;5095147;28;20048;-74
2021/04/10 07:51:38;;;;;;;4.90;0.85;;;15.70;53.40;;;;;;5094770;28;20101;-73
2021/04/10 07:54:24;;;;;;;3.75;1.00;;;15.60;53.50;;;;;;5095502;28;20063;-74
2021/04/10 07:56:55;;;;;;;2.95;0.75;;;15.60;53.50;;;;;;5095483;28;20127;-74
2021/04/10 07:59:21;;;;;;;3.03;0.52;;;15.60;53.90;;;;;;5095208;28;20418;-74
2021/04/10 08:01:47;;;;;;;2.75;0.73;;;15.60;54.00;;;;;;5095099;28;20060;-73
2021/04/10 08:04:14;;;;;;;2.88;0.93;;;15.60;54.00;;;;;;5097212;28;20119;-74
2021/04/10 08:06:54;;;;;;;4.60;1.00;;;15.60;54.10;;;;;;5081475;28;20111;-74
2021/04/10 08:09:37;;;;;;;2.38;0.60;;;15.50;54.10;;;;;;5099322;28;20336;-76
2021/04/10 08:12:10;;;;;;;4.60;0.75;;;15.60;54.20;;;;;;5098974;28;20035;-75
2021/04/10 08:14:39;;;;;;;;;;;15.50;54.40;;;;;;5099431;28;20107;-73
2021/04/10 08:17:05;;;;;;;2.22;0.63;;;15.50;54.30;;;;;;5098758;28;19919;-74
2021/04/10 08:19:32;;;;;;;4.13;1.05;;;15.50;54.40;;;;;;5099410;28;20052;-74
2021/04/10 08:21:59;;;;;;;2.63;0.60;;;15.50;54.20;;;;;;5099186;28;20115;-73
2021/04/10 08:24:31;;;;;;;2.72;0.68;;;15.50;54.20;;;;;;5098087;28;20474;-73
2021/04/10 08:27:01;;;;;;;3.45;0.50;;;15.50;54.30;;;;;;5098721;28;20107;-74
2021/04/10 08:29:27;;;;;;;2.25;0.50;;;15.40;54.50;;;;;;5098570;28;20367;-75
2021/04/10 08:31:54;;;;;;;3.53;0.85;;;15.40;54.50;;;;;;5098909;28;20072;-74
2021/04/10 08:34:21;;;;;;;4.82;0.52;;;15.40;54.40;;;;;;5098448;28;20039;-73
2021/04/10 08:36:57;;;;;;;2.67;0.40;;;15.40;54.50;;;;;;5099024;28;20044;-74
2021/04/10 08:39:30;;;;;;;1.10;0.38;;;15.40;54.50;;;;;;5098413;28;20044;-72
2021/04/10 08:41:57;;;;;;;;;;;15.40;54.60;;;;;;5098698;28;20036;-75
2021/04/10 08:44:26;;;;;;;3.05;0.75;;;15.40;54.50;;;;;;5098178;28;19923;-76
2021/04/10 08:46:54;;;;;;;4.30;0.70;;;15.40;54.60;;;;;;5098543;28;20039;-74
2021/04/10 08:49:20;;;;;;;2.15;0.77;;;15.30;55.20;;;;;;5080648;28;20068;-74
2021/04/10 08:51:52;;;;;;;2.80;0.73;;;15.40;54.60;;;;;;5098121;28;20048;-74
2021/04/10 08:54:19;;;;;;;3.17;0.80;;;15.30;54.50;;;;;;5097575;28;20386;-74
2021/04/10 08:56:50;;;;;;;2.45;0.40;;;15.30;54.50;;;;;;5098124;28;20111;-73
2021/04/10 08:59:17;;;;;;;2.30;0.68;;;15.30;54.50;;;;;;5098266;28;20056;-76
2021/04/10 09:01:45;;;;;;;1.98;0.50;;;15.30;54.50;;;;;;5098016;28;20088;-75
2021/04/10 09:04:12;;;;;;;1.92;0.55;;;15.30;54.50;;;;;;5097616;28;20032;-73
2021/04/10 09:06:38;;;;;;;1.40;0.30;;;15.30;54.40;;;;;;5098003;28;20043;-74
2021/04/10 09:09:25;;;;;;;1.45;0.55;;;15.30;54.50;;;;;;5098303;28;20040;-73
2021/04/10 09:12:20;;;;;;;3.08;0.30;;;15.30;54.50;;;;;;5081300;28;20052;-74
2021/04/10 09:14:48;;;;;;;2.83;0.50;;;15.30;54.50;;;;;;5097029;28;20032;-73
2021/04/10 09:17:14;;;;;;;2.92;0.50;;;15.30;54.60;;;;;;5097499;28;20439;-74
2021/04/10 09:19:40;;;;;;;2.25;0.38;;;15.20;54.60;;;;;;5097721;28;20182;-76
2021/04/10 09:22:06;;;;;;;4.57;0.88;;;15.20;54.60;;;;;;5097961;28;20487;-74
2021/04/10 09:24:32;;;;;;;1.98;0.63;;;15.20;54.50;;;;;;5097428;28;20051;-74
2021/04/10 09:27:05;;;;;;;3.30;0.32;;;15.20;54.50;;;;;;5098069;28;20040;-75
2021/04/10 09:29:42;;;;;;;2.88;0.50;;;15.20;54.60;;;;;;5097421;28;20048;-74
2021/04/10 09:32:09;;;;;;;2.85;0.65;;;15.20;54.60;;;;;;5097451;28;20056;-74
2021/04/10 09:34:57;;;;;;;1.85;0.50;;;15.20;54.70;;;;;;5096884;28;20044;-75
2021/04/10 09:37:23;;;;;;;3.38;0.50;;;15.20;54.70;;;;;;5097385;28;20339;-73
2021/04/10 09:39:57;;;;;;;2.17;0.43;;;15.20;54.70;;;;;;5097280;28;20032;-74
2021/04/10 09:42:34;;;;;;;2.47;0.40;;;15.20;54.60;;;;;;5097434;28;20461;-74
2021/04/10 09:45:08;;;;;;;3.65;0.55;;;15.20;54.60;;;;;;5096931;28;20154;-72
2021/04/10 09:50:39;;;;;;;1.83;0.50;;;15.20;55.40;;;;;;5097164;28;20044;-74
2021/04/10 09:53:18;;;;;;;4.30;0.47;;;15.10;54.70;;;;;;5097127;28;20044;-75
2021/04/10 09:55:46;;;;;;;3.03;0.40;;;15.10;54.80;;;;;;5097116;28;20138;-73
2021/04/10 09:58:17;;;;;;;1.08;0.35;;;15.10;54.80;;;;;;5097049;28;20039;-74
2021/04/10 10:00:48;;;;;;;4.13;0.60;;;15.10;54.90;;;;;;5096660;28;20048;-73
2021/04/10 10:03:18;;;;;;;3.38;0.43;;;15.10;55.00;;;;;;5097476;28;20040;-74
2021/04/10 10:05:56;;;;;;;1.08;0.28;;;15.10;55.10;;;;;;5096932;28;20516;-74
2021/04/10 10:08:28;;;;;;;1.98;0.25;;;15.10;55.10;;;;;;5096836;28;20036;-73
2021/04/10 10:10:58;;;;;;;2.15;0.40;;;15.10;55.20;;;;;;5096998;28;20051;-76
2021/04/10 10:13:32;;;;;;;2.78;0.40;;;15.10;55.20;;;;;;5097451;28;20055;-73
2021/04/10 10:15:58;;;;;;;;;;;15.10;55.20;;;;;;5097152;28;20059;-75
2021/04/10 10:18:25;;;;;;;3.58;0.30;;;15.10;55.20;;;;;;5096319;28;20008;-73
2021/04/10 10:21:12;;;;;;;2.75;0.43;;;15.10;55.30;;;;;;5096799;28;20036;-75
2021/04/10 10:23:40;;;;;;;2.80;0.75;;;15.10;55.30;;;;;;5096382;28;20452;-74
2021/04/10 10:26:09;;;;;;;2.42;0.43;;;15.10;55.20;;;;;;5096211;28;20119;-74
2021/04/10 10:28:38;;;;;;;1.83;0.40;;;15.10;55.30;;;;;;5096234;28;20167;-73
2021/04/10 10:31:07;;;;;;;3.88;0.70;;;15.10;55.30;;;;;;5095914;28;20039;-73
2021/04/10 10:33:34;;;;;;;1.38;0.40;;;15.00;55.20;;;;;;5096496;28;20056;-75
2021/04/10 10:36:01;;;;;;;1.90;0.50;;;15.10;55.20;;;;;;5096186;28;20343;-73
2021/04/10 10:38:34;;;;;;;2.13;0.40;;;15.10;55.30;;;;;;5096090;28;20058;-73
2021/04/10 10:41:01;;;;;;;2.58;0.35;;;15.10;55.20;;;;;;5095761;28;20032;-76
2021/04/10 10:43:28;;;;;;;2.50;0.45;;;15.10;55.20;;;;;;5096074;28;20032;-74
2021/04/10 10:45:59;;;;;;;1.60;0.20;;;15.10;55.20;;;;;;5096288;28;20028;-73
2021/04/10 10:48:30;;;;;;;1.45;0.40;;;15.00;55.20;;;;;;5096113;28;20036;-74
2021/04/10 10:51:12;;;;;;;2.90;0.73;;;15.10;55.20;;;;;;5095906;28;20047;-73
2021/04/10 10:53:42;;;;;;;2.58;0.40;;;15.10;55.30;;;;;;5096359;28;20040;-74
2021/04/10 10:56:19;;;;;;;2.13;0.40;;;15.10;55.30;;;;;;5095803;28;20355;-76
2021/04/10 10:58:49;;;;;;;2.15;0.50;;;15.10;55.40;;;;;;5095508;28;20059;-74
2021/04/10 11:01:21;;;;;;;2.08;0.43;;;15.10;55.50;;;;;;5095685;28;20040;-75
2021/04/10 11:04:01;;;;;;;1.65;0.30;;;15.10;55.50;;;;;;5096005;28;20044;-75
2021/04/10 11:06:34;;;;;;;2.15;0.43;;;15.10;55.60;;;;;;5096057;28;20435;-73
2021/04/10 11:09:02;;;;;;;1.73;0.30;;;15.00;55.70;;;;;;5095557;28;20439;-73
2021/04/10 11:11:36;;;;;;;1.35;0.30;;;15.10;55.80;;;;;;5095807;28;20069;-74
2021/04/10 11:14:05;;;;;;;2.08;0.40;;;15.00;55.70;;;;;;5096144;28;20059;-72
2021/04/10 11:16:32;;;;;;;2.20;0.40;;;15.00;55.70;;;;;;5095700;28;20418;-73
2021/04/10 11:18:59;;;;;;;2.45;0.50;;;15.00;55.60;;;;;;5095528;28;20051;-73
2021/04/10 11:21:30;;;;;;;2.67;0.55;;;15.00;55.60;;;;;;5095758;28;20122;-74
2021/04/10 11:23:56;;;;;;;4.35;0.50;;;15.00;55.50;;;;;;5094830;28;20119;-74
2021/04/10 11:26:44;;;;;;;0.95;0.30;;;15.00;55.50;;;;;;5095371;28;20115;-73
2021/04/10 11:29:19;;;;;;;1.58;0.25;;;15.00;55.50;;;;;;5095200;28;20044;-74
2021/04/10 11:32:03;;;;;;;1.25;0.28;;;15.00;55.50;;;;;;5095226;28;20048;-75
2021/04/10 11:34:56;;;;;;;3.30;0.65;;;15.00;55.50;;;;;;5095075;28;20071;-75
2021/04/10 11:37:28;;;;;;;0.90;0.30;;;15.00;55.50;;;;;;5094771;28;20062;-75
2021/04/10 11:40:00;;;;;;;1.75;0.45;;;15.00;55.40;;;;;;5094936;28;20118;-74
2021/04/10 11:42:29;;;;;;;2.63;0.70;;;15.00;55.40;;;;;;5095044;28;20034;-73
2021/04/10 11:44:59;;;;;;;1.17;0.35;;;15.00;55.50;;;;;;5094933;28;20115;-74
2021/04/10 11:47:27;;;;;;;4.35;0.50;;;15.00;55.50;;;;;;5095769;28;20039;-74
2021/04/10 11:50:04;;;;;;;2.10;0.50;;;15.00;55.50;;;;;;5095379;28;20032;-75
2021/04/10 11:52:30;;;;;;;1.80;0.20;;;15.00;55.60;;;;;;5095673;28;20450;-75
2021/04/10 11:55:26;;;;;;;1.30;0.20;;;15.00;55.60;;;;;;5095578;28;20039;-75
2021/04/10 11:57:56;;;;;;;3.15;0.50;;;15.00;55.50;;;;;;5093137;28;20056;-74
2021/04/10 12:00:26;;;;;;;1.67;0.40;;;15.00;55.70;;;;;;5094900;28;20461;-74
2021/04/10 12:02:53;;;;;;;2.40;0.40;;;15.00;55.70;;;;;;5094849;28;20048;-75
2021/04/10 12:05:29;;;;;;;1.70;0.60;;;14.90;55.60;;;;;;5094878;28;20093;-74
2021/04/10 12:08:07;;;;;;;1.42;0.45;;;14.90;55.60;;;;;;5094775;28;20044;-74
2021/04/10 12:10:35;;;;;;;1.42;0.47;;;14.90;55.50;;;;;;5094897;28;20040;-74
2021/04/10 12:13:00;;;;;;;2.45;0.30;;;14.90;55.40;;;;;;5095207;28;20055;-74
2021/04/10 12:15:31;;;;;;;3.38;0.60;;;14.90;55.50;;;;;;5094447;28;20036;-74
2021/04/10 12:17:57;;;;;;;2.22;0.38;;;14.90;55.40;;;;;;5094788;28;20324;-75
2021/04/10 12:20:24;;;;;;;2.33;0.55;;;14.90;55.40;;;;;;5094492;28;20036;-73
2021/04/10 12:22:50;;;;;;;2.45;0.40;;;14.90;55.30;;;;;;5095321;28;20059;-75
2021/04/10 12:25:17;;;;;;;1.40;0.32;;;14.90;55.30;;;;;;5094580;28;20097;-75
2021/04/10 12:27:43;;;;;;;2.53;0.30;;;14.90;55.40;;;;;;5095269;28;20058;-75
2021/04/10 12:30:09;;;;;;;1.05;0.35;;;14.90;55.50;;;;;;5095351;28;20040;-74
2021/04/10 12:32:36;;;;;;;0.93;0.30;;;14.90;55.50;;;;;;5094682;28;20059;-76
2021/04/10 12:35:03;;;;;;;1.35;0.20;;;14.90;55.50;;;;;;5094135;28;20040;-73
2021/04/10 12:37:29;;;;;;;1.98;0.30;;;14.90;55.50;;;;;;5094564;28;20043;-75
2021/04/10 12:39:55;;;;;;;2.17;0.47;;;14.90;55.50;;;;;;5095012;28;20066;-75
2021/04/10 12:42:20;;;;;;;1.05;0.40;;;14.90;55.50;;;;;;5095181;28;20039;-73
2021/04/10 12:44:46;;;;;;;2.10;0.30;;;14.90;55.40;;;;;;5094351;28;20040;-74
2021/04/10 12:47:19;;;;;;;2.33;0.30;;;14.90;55.30;;;;;;5094308;28;20123;-74
2021/04/10 12:49:45;;;;;;;2.60;0.37;;;14.90;55.30;;;;;;5094505;28;20114;-74
2021/04/10 12:52:12;;;;;;;1.70;0.20;;;14.90;55.30;;;;;;5098062;28;20048;-74
2021/04/10 12:54:38;;;;;;;1.38;0.35;;;14.90;55.20;;;;;;5098159;28;20051;-74
2021/04/10 12:57:05;;;;;;;2.05;0.40;;;14.90;55.30;;;;;;5097872;28;20048;-75
2021/04/10 12:59:32;;;;;;;1.60;0.30;;;14.90;55.30;;;;;;5098728;28;20063;-74
2021/04/10 13:01:59;;;;;;;1.83;0.55;;;14.90;55.30;;;;;;5098347;28;20052;-75